Providence Village's Hourly Summary for Monday, March 13, 2017
Hour Temp
(f)
RH
(%)
Solar Rad.
(MJ/m2)
Rainfall
(in)
Wind
(mph)
3/13/2017 12:00 AM 49 70 0 0 5.34
3/13/2017 1:00 AM 48 79 0 0 4.79
3/13/2017 2:00 AM 48 81 0 0 3.99
3/13/2017 3:00 AM 48 81 0 0 3.21
3/13/2017 4:00 AM 48 82 0 0.03 4.28
3/13/2017 5:00 AM 47 92 0 0 3.22
3/13/2017 6:00 AM 47 94 0 0 1.94
3/13/2017 7:00 AM 47 93 0 0 1.05
3/13/2017 8:00 AM 47 92 0.01 0 2.49
3/13/2017 9:00 AM 47 92 0.06 0 0.62
3/13/2017 10:00 AM 48 84 0.42 0 3.23
3/13/2017 11:00 AM 50 74 1.07 0 7.63
3/13/2017 12:00 PM 52 70 1.21 0 9.57
3/13/2017 1:00 PM 53 54 2.25 0 8.85
3/13/2017 2:00 PM 57 41 3.03 0 8.61
3/13/2017 3:00 PM 59 36 2.99 0 11.17
3/13/2017 4:00 PM 59 31 2.71 0 12
3/13/2017 5:00 PM 59 29 2.16 0 12.93
3/13/2017 6:00 PM 58 26 1.47 0 12.04
3/13/2017 7:00 PM 55 24 0.62 0 10.12
3/13/2017 8:00 PM 51 28 0.07 0 6.43
3/13/2017 9:00 PM 49 33 0 0 4.71
3/13/2017 10:00 PM 47 34 0 0 6.41
3/13/2017 11:00 PM 45 39 0 0 4.47
Data Summary 50 60 18.07 0.03 6.21